首页
METAR-TAF:

METAR-TAF

机场 :

迪戈加西亚岛, 英屬印度洋領地

纬度: 07-18S, 经度: 072-24E, 海拔: 1米

当前天气观测

该预报发布于41分钟前的15:55 UTC
风速5节,风向西北
温度 28°C
湿度 89%
气压 1012 hPa
能见度10公里或以上
少量云层高于1800英尺
散云层高于22000英尺

METAR: FJDG 211555Z 31005KT 9999 FEW018 SCT220 28/26 A2989 RMK SLP119 T02830255

时间: 22:36 (16:36 UTC)

预报

该预报发布于7小时和36分钟前的09:00 UTC
预报有效从21日的 09点(UTC)到 22日的 15点(UTC)
风速6节,风向多变
能见度10公里或以上
少量云层高于2000英尺
少量云层高于25000英尺

TAF: FJDG 210900Z 2109/2215 VRB06KT 9999 FEW020 FEW250 QNH2979INS TX34/2109Z TN25/2122Z

超过4000个机场的气象观测和天气预报(METAR&TAF报告)。

可查询的气象台以黄色和红色小点在地图上表示。

将鼠标移到小点上方,可查看气象台名称。

然后点击查看天气观测和预报。

如需切换地图:点击带黑十字的绿色按钮放大地图;点击带横线的绿色按钮缩小地图;或者点击绿色箭头查看邻近地区的地图。


METAR-TAF: